createdAt,value
2023-05-19T00:00:33.326Z,3.30
2023-05-19T00:03:21.750Z,2.30
2023-05-19T00:05:50.632Z,2.70
2023-05-19T00:08:18.376Z,2.80
2023-05-19T00:10:46.630Z,2.30
2023-05-19T00:13:14.681Z,2.20
2023-05-19T00:15:42.996Z,2.50
2023-05-19T00:18:14.277Z,2.40
2023-05-19T00:20:42.551Z,2.00
2023-05-19T00:23:10.992Z,1.80
2023-05-19T00:25:38.843Z,2.10
2023-05-19T00:28:06.526Z,1.90
2023-05-19T00:30:34.350Z,1.80
2023-05-19T00:33:02.601Z,1.70
2023-05-19T00:35:30.461Z,2.00
2023-05-19T00:37:58.321Z,3.20
2023-05-19T00:40:26.191Z,2.10
2023-05-19T00:42:53.924Z,2.10
2023-05-19T00:45:21.794Z,2.20
2023-05-19T00:47:49.670Z,1.90
2023-05-19T00:50:17.409Z,2.70
2023-05-19T00:52:45.044Z,2.60
2023-05-19T00:55:14.365Z,2.20
2023-05-19T00:57:42.618Z,3.00
2023-05-19T01:00:11.417Z,2.30
2023-05-19T01:02:40.213Z,2.70
2023-05-19T01:05:08.650Z,3.50
2023-05-19T01:07:36.955Z,2.80
2023-05-19T01:10:05.239Z,3.10
2023-05-19T01:12:32.909Z,2.80
2023-05-19T01:15:01.272Z,2.40
2023-05-19T01:17:51.289Z,2.50
2023-05-19T01:20:36.326Z,2.00
2023-05-19T01:23:17.997Z,2.00
2023-05-19T01:26:38.522Z,2.00
2023-05-19T01:29:24.682Z,2.00
2023-05-19T01:31:52.374Z,2.20
2023-05-19T01:34:20.461Z,3.00
2023-05-19T01:36:49.337Z,2.30
2023-05-19T01:39:17.041Z,2.40
2023-05-19T01:41:44.682Z,2.70
2023-05-19T01:44:12.353Z,2.60
2023-05-19T01:46:40.049Z,2.80
2023-05-19T01:49:07.907Z,2.50
2023-05-19T01:51:35.841Z,2.80
2023-05-19T01:54:03.611Z,2.90
2023-05-19T01:56:41.475Z,2.10
2023-05-19T01:59:16.987Z,2.50
2023-05-19T02:01:54.070Z,2.40
2023-05-19T02:04:45.241Z,2.60
2023-05-19T02:07:22.445Z,2.80
2023-05-19T02:09:59.414Z,3.10
2023-05-19T02:12:35.788Z,2.40
2023-05-19T02:15:10.822Z,2.40
2023-05-19T02:17:41.649Z,2.10
2023-05-19T02:20:10.337Z,2.40
2023-05-19T02:22:38.135Z,2.80
2023-05-19T02:25:06.271Z,2.40
2023-05-19T02:27:34.989Z,2.30
2023-05-19T02:30:06.443Z,3.00
2023-05-19T02:32:34.524Z,2.90
2023-05-19T02:35:02.850Z,2.50
2023-05-19T02:37:31.243Z,3.20
2023-05-19T02:39:59.302Z,2.60
2023-05-19T02:42:26.961Z,3.10
2023-05-19T02:44:55.446Z,2.60
2023-05-19T02:47:23.373Z,3.50
2023-05-19T02:49:51.061Z,2.80
2023-05-19T02:52:18.761Z,2.70
2023-05-19T02:54:46.747Z,8.80
2023-05-19T02:57:14.398Z,23.20
2023-05-19T02:59:42.965Z,11.60
2023-05-19T03:02:11.596Z,4.00
2023-05-19T03:04:42.802Z,2.90
2023-05-19T03:07:10.665Z,3.30
2023-05-19T03:09:38.423Z,5.00
2023-05-19T03:12:07.700Z,9.90
2023-05-19T03:14:38.575Z,12.10
2023-05-19T03:17:10.330Z,14.80
2023-05-19T03:19:38.218Z,7.80
2023-05-19T03:22:06.792Z,5.00
2023-05-19T03:24:34.796Z,7.00
2023-05-19T03:27:02.785Z,6.30
2023-05-19T03:29:31.015Z,4.80
2023-05-19T03:31:59.905Z,8.80
2023-05-19T03:34:27.666Z,6.60
2023-05-19T03:36:55.304Z,6.20
2023-05-19T03:39:23.638Z,4.10
2023-05-19T03:41:51.435Z,3.30
2023-05-19T03:44:19.201Z,4.50
2023-05-19T03:46:47.064Z,4.40
2023-05-19T03:49:15.142Z,11.00
2023-05-19T03:51:43.234Z,10.20
2023-05-19T03:54:11.259Z,6.90
2023-05-19T03:56:39.377Z,5.30
2023-05-19T03:59:07.331Z,5.00
2023-05-19T04:01:36.500Z,10.60
2023-05-19T04:04:04.438Z,18.00
2023-05-19T04:06:32.169Z,8.30
2023-05-19T04:09:02.391Z,6.90
2023-05-19T04:11:30.050Z,7.30
2023-05-19T04:13:57.706Z,4.60
2023-05-19T04:16:25.985Z,4.20
2023-05-19T04:18:53.839Z,4.50
2023-05-19T04:21:22.432Z,3.20
2023-05-19T04:23:50.445Z,3.10
2023-05-19T04:26:19.292Z,4.00
2023-05-19T04:28:48.338Z,3.50
2023-05-19T04:31:16.182Z,3.50
2023-05-19T04:33:43.913Z,3.40
2023-05-19T04:36:13.768Z,3.80
2023-05-19T04:38:41.969Z,3.00
2023-05-19T04:41:11.070Z,3.00
2023-05-19T04:43:42.076Z,2.90
2023-05-19T04:46:13.367Z,3.10
2023-05-19T04:48:41.495Z,3.30
2023-05-19T04:51:09.451Z,3.10
2023-05-19T04:53:37.367Z,2.70
2023-05-19T04:56:05.432Z,2.80
2023-05-19T04:58:33.303Z,2.70
2023-05-19T05:01:01.432Z,3.20
2023-05-19T05:03:30.952Z,2.70
2023-05-19T05:05:58.747Z,3.20
2023-05-19T05:08:27.390Z,3.00
2023-05-19T05:10:55.738Z,3.00
2023-05-19T05:13:24.074Z,3.20
2023-05-19T05:15:52.360Z,2.50
2023-05-19T05:18:20.788Z,2.90
2023-05-19T05:20:48.844Z,2.90
2023-05-19T05:23:16.951Z,2.70
2023-05-19T05:25:45.312Z,2.60
2023-05-19T05:28:13.187Z,3.10
2023-05-19T05:30:41.667Z,3.70
2023-05-19T05:33:09.580Z,2.80
2023-05-19T05:35:37.496Z,3.10
2023-05-19T05:38:05.533Z,2.70
2023-05-19T05:40:33.328Z,3.40
2023-05-19T05:43:00.975Z,9.00
2023-05-19T05:45:28.710Z,7.80
2023-05-19T05:47:56.823Z,4.40
2023-05-19T05:50:25.416Z,5.40
2023-05-19T05:52:53.340Z,5.50
2023-05-19T05:55:21.697Z,4.50
2023-05-19T05:57:50.638Z,4.60
2023-05-19T06:00:19.422Z,5.20
2023-05-19T06:02:47.542Z,5.10
2023-05-19T06:05:15.393Z,7.00
2023-05-19T06:07:43.512Z,3.90
2023-05-19T06:10:11.438Z,3.70
2023-05-19T06:12:40.795Z,3.70
2023-05-19T06:15:10.217Z,3.90
2023-05-19T06:17:37.949Z,3.70
2023-05-19T06:20:06.664Z,4.10
2023-05-19T06:22:34.584Z,3.80
2023-05-19T06:25:02.227Z,4.50
2023-05-19T06:27:30.828Z,4.00
2023-05-19T06:30:00.191Z,5.70
2023-05-19T06:32:29.726Z,5.30
2023-05-19T06:34:57.527Z,4.90
2023-05-19T06:37:25.740Z,5.00
2023-05-19T06:39:53.708Z,5.00
2023-05-19T06:42:25.323Z,4.60
2023-05-19T06:44:53.444Z,4.70
2023-05-19T06:47:21.209Z,4.40
2023-05-19T06:49:55.487Z,5.90
2023-05-19T06:52:24.404Z,4.40
2023-05-19T06:54:52.428Z,4.10
2023-05-19T06:57:20.051Z,4.80
2023-05-19T06:59:47.917Z,3.80
2023-05-19T07:02:15.677Z,4.10
2023-05-19T07:04:43.646Z,4.50
2023-05-19T07:07:11.557Z,5.90
2023-05-19T07:09:39.475Z,5.30
2023-05-19T07:12:07.407Z,4.90
2023-05-19T07:14:36.501Z,4.80
2023-05-19T07:17:04.712Z,5.90
2023-05-19T07:19:32.399Z,7.90
2023-05-19T07:22:00.780Z,7.90
2023-05-19T07:24:28.732Z,9.90
2023-05-19T07:26:56.549Z,7.20
2023-05-19T07:29:24.472Z,6.80
2023-05-19T07:31:54.333Z,5.60
2023-05-19T07:34:22.117Z,6.60
2023-05-19T07:36:50.301Z,5.50
2023-05-19T07:39:18.352Z,4.70
2023-05-19T07:41:52.641Z,6.00
2023-05-19T07:44:20.511Z,5.70
2023-05-19T07:46:48.182Z,5.40
2023-05-19T07:49:15.925Z,4.50
2023-05-19T07:51:43.900Z,6.10
2023-05-19T07:54:11.534Z,7.10
2023-05-19T07:56:39.350Z,5.30
2023-05-19T07:59:08.085Z,4.30
2023-05-19T08:01:35.939Z,8.90
2023-05-19T08:04:03.821Z,6.10
2023-05-19T08:06:31.898Z,4.90
2023-05-19T08:08:59.688Z,5.70
2023-05-19T08:11:27.385Z,4.90
2023-05-19T08:13:55.246Z,4.60
2023-05-19T08:16:23.122Z,5.20
2023-05-19T08:18:51.126Z,7.70
2023-05-19T08:21:19.367Z,6.50
2023-05-19T08:23:47.146Z,10.00
2023-05-19T08:26:14.869Z,7.60
2023-05-19T08:28:44.335Z,6.00
2023-05-19T08:31:12.371Z,7.90
2023-05-19T08:33:40.182Z,8.80
2023-05-19T08:36:08.129Z,5.40
2023-05-19T08:38:35.773Z,6.20
2023-05-19T08:41:03.634Z,5.90
2023-05-19T08:43:31.604Z,5.20
2023-05-19T08:45:59.688Z,5.20
2023-05-19T08:48:29.548Z,5.40
2023-05-19T08:51:06.664Z,5.50
2023-05-19T08:53:37.047Z,5.90
2023-05-19T08:56:11.118Z,6.00
2023-05-19T08:58:39.816Z,6.50
2023-05-19T09:01:08.047Z,5.20
2023-05-19T09:03:39.382Z,5.50
2023-05-19T09:06:08.714Z,6.20
2023-05-19T09:08:37.330Z,5.90
2023-05-19T09:11:05.026Z,6.10
2023-05-19T09:13:32.692Z,7.80
2023-05-19T09:16:00.829Z,6.00
2023-05-19T09:18:28.534Z,5.90
2023-05-19T09:20:59.748Z,5.90
2023-05-19T09:23:29.707Z,5.60
2023-05-19T09:25:57.534Z,5.90
2023-05-19T09:28:29.614Z,5.90
2023-05-19T09:31:01.215Z,6.50
2023-05-19T09:33:30.060Z,6.80
2023-05-19T09:35:57.969Z,6.80
2023-05-19T09:38:26.959Z,6.80
2023-05-19T09:40:58.377Z,8.00
2023-05-19T09:43:34.319Z,6.90
2023-05-19T09:46:10.662Z,6.40
2023-05-19T09:48:39.920Z,7.10
2023-05-19T09:51:10.247Z,7.10
2023-05-19T09:53:39.151Z,6.90
2023-05-19T09:56:07.354Z,8.10
2023-05-19T09:58:35.643Z,6.20
2023-05-19T10:01:04.175Z,6.70
2023-05-19T10:03:35.228Z,5.70
2023-05-19T10:06:04.355Z,6.10
2023-05-19T10:08:33.547Z,6.50
2023-05-19T10:11:01.283Z,7.20
2023-05-19T10:13:29.505Z,7.50
2023-05-19T10:15:59.303Z,6.80
2023-05-19T10:18:29.697Z,6.50
2023-05-19T10:20:58.294Z,6.10
2023-05-19T10:23:26.500Z,6.80
2023-05-19T10:25:56.434Z,6.70
2023-05-19T10:28:26.674Z,5.30
2023-05-19T10:30:56.652Z,5.50
2023-05-19T10:33:43.262Z,5.30
2023-05-19T10:36:24.428Z,5.60
2023-05-19T10:39:06.390Z,6.50
2023-05-19T10:42:07.451Z,7.10
2023-05-19T10:44:46.421Z,6.00
2023-05-19T10:47:14.293Z,4.90
2023-05-19T10:49:42.297Z,5.80
2023-05-19T10:52:25.982Z,6.50
2023-05-19T10:54:54.911Z,5.30
2023-05-19T10:57:31.952Z,5.50
2023-05-19T11:00:08.650Z,6.80
2023-05-19T11:02:41.294Z,6.30
2023-05-19T11:05:18.208Z,5.70
2023-05-19T11:07:56.167Z,6.20
2023-05-19T11:10:24.376Z,5.90
2023-05-19T11:12:52.279Z,5.40
2023-05-19T11:15:20.511Z,5.60
2023-05-19T11:17:48.831Z,6.00
2023-05-19T11:20:24.163Z,6.60
2023-05-19T11:23:08.829Z,4.80
2023-05-19T11:25:53.936Z,6.20
2023-05-19T11:28:26.760Z,6.20
2023-05-19T11:30:55.118Z,6.20
2023-05-19T11:33:27.278Z,6.30
2023-05-19T11:35:58.617Z,6.10
2023-05-19T11:38:28.524Z,5.90
2023-05-19T11:40:56.643Z,6.00
2023-05-19T11:43:25.227Z,5.50
2023-05-19T11:45:56.420Z,5.80
2023-05-19T11:48:24.828Z,5.80
2023-05-19T11:50:52.639Z,6.10
2023-05-19T11:53:21.092Z,6.40
2023-05-19T11:55:49.659Z,5.40
2023-05-19T11:58:17.753Z,6.20
2023-05-19T12:00:47.935Z,5.60
2023-05-19T12:03:17.536Z,5.90
2023-05-19T12:05:47.168Z,5.90
2023-05-19T12:08:17.598Z,6.20
2023-05-19T12:10:47.807Z,5.50
2023-05-19T12:13:15.756Z,6.30
2023-05-19T12:15:43.900Z,5.40
2023-05-19T12:18:11.693Z,5.20
2023-05-19T12:20:39.467Z,5.10
2023-05-19T12:23:07.724Z,5.90
2023-05-19T12:25:35.700Z,5.50
2023-05-19T12:28:04.559Z,6.00
2023-05-19T12:30:33.595Z,5.20
2023-05-19T12:33:02.656Z,5.60
2023-05-19T12:35:33.364Z,5.70
2023-05-19T12:38:05.711Z,5.40
2023-05-19T12:40:35.418Z,5.30
2023-05-19T12:43:04.446Z,5.30
2023-05-19T12:45:39.911Z,5.20
2023-05-19T12:48:16.244Z,5.70
2023-05-19T12:50:45.025Z,6.30
2023-05-19T12:53:13.827Z,6.00
2023-05-19T12:55:44.910Z,6.00
2023-05-19T12:58:12.691Z,6.20
2023-05-19T13:00:50.529Z,5.70
2023-05-19T13:03:22.311Z,5.80
2023-05-19T13:05:51.152Z,6.30
2023-05-19T13:08:24.066Z,5.90
2023-05-19T13:10:52.312Z,6.20
2023-05-19T13:13:19.974Z,5.70
2023-05-19T13:15:50.504Z,5.90
2023-05-19T13:18:18.657Z,5.80
2023-05-19T13:20:47.101Z,5.70
2023-05-19T13:23:15.624Z,5.40
2023-05-19T13:25:43.639Z,5.60
2023-05-19T13:28:11.311Z,5.40
2023-05-19T13:30:40.446Z,5.70
2023-05-19T13:33:08.748Z,5.20
2023-05-19T13:35:39.332Z,5.30
2023-05-19T13:38:09.160Z,4.70
2023-05-19T13:40:36.939Z,7.40
2023-05-19T13:43:04.697Z,9.10
2023-05-19T13:45:32.403Z,6.10
2023-05-19T13:48:00.231Z,5.10
2023-05-19T13:50:29.389Z,5.20
2023-05-19T13:52:57.195Z,5.00
2023-05-19T13:55:27.289Z,5.40
2023-05-19T13:57:55.035Z,5.80
2023-05-19T14:00:24.055Z,5.50
2023-05-19T14:02:51.961Z,8.50
2023-05-19T14:05:19.900Z,8.90
2023-05-19T14:07:47.575Z,8.80
2023-05-19T14:10:15.700Z,6.40
2023-05-19T14:13:08.047Z,6.10
2023-05-19T14:15:34.525Z,5.50
2023-05-19T14:18:02.795Z,5.80
2023-05-19T14:20:32.879Z,7.20
2023-05-19T14:23:00.763Z,5.90
2023-05-19T14:25:28.398Z,6.60
2023-05-19T14:27:56.622Z,7.20
2023-05-19T14:30:24.410Z,6.10
2023-05-19T14:32:52.122Z,5.80
2023-05-19T14:35:20.875Z,6.00
2023-05-19T14:37:48.518Z,5.10
2023-05-19T14:40:16.618Z,5.60
2023-05-19T14:42:44.310Z,5.60
2023-05-19T14:45:12.225Z,5.70
2023-05-19T14:47:40.567Z,5.00
2023-05-19T14:50:08.442Z,4.50
2023-05-19T14:52:36.056Z,5.20
2023-05-19T14:55:04.125Z,5.20
2023-05-19T14:57:32.271Z,4.70
2023-05-19T14:59:59.950Z,5.20
2023-05-19T15:02:29.546Z,5.40
2023-05-19T15:04:57.627Z,5.50
2023-05-19T15:07:25.470Z,5.40
2023-05-19T15:09:53.586Z,4.90
2023-05-19T15:12:21.609Z,4.80
2023-05-19T15:14:49.427Z,5.00
2023-05-19T15:17:17.177Z,4.70
2023-05-19T15:19:45.070Z,4.70
2023-05-19T15:22:12.734Z,4.60
2023-05-19T15:24:41.329Z,4.20
2023-05-19T15:27:09.268Z,4.40
2023-05-19T15:29:37.016Z,6.30
2023-05-19T15:32:05.032Z,6.00
2023-05-19T15:34:32.913Z,5.10
2023-05-19T15:37:00.710Z,5.20
2023-05-19T15:39:30.455Z,7.80
2023-05-19T15:41:58.492Z,16.20
2023-05-19T15:44:28.863Z,9.10
2023-05-19T15:46:56.801Z,7.30
2023-05-19T15:49:25.289Z,8.40
2023-05-19T15:51:52.948Z,6.50
2023-05-19T15:54:20.612Z,9.10
2023-05-19T15:56:48.548Z,11.10
2023-05-19T15:59:16.177Z,18.20
2023-05-19T16:01:44.124Z,12.00
2023-05-19T16:04:12.081Z,12.00
2023-05-19T16:06:39.786Z,15.40
2023-05-19T16:09:07.424Z,13.70
2023-05-19T16:11:35.479Z,11.60
2023-05-19T16:14:03.098Z,11.40
2023-05-19T16:16:30.915Z,12.80
2023-05-19T16:18:59.419Z,9.60
2023-05-19T16:21:27.174Z,11.80
2023-05-19T16:23:54.997Z,8.50
2023-05-19T16:26:22.795Z,22.20
2023-05-19T16:28:50.454Z,40.80
2023-05-19T16:31:18.325Z,27.50
2023-05-19T16:33:46.370Z,12.10
2023-05-19T16:36:14.038Z,9.30
2023-05-19T16:38:41.708Z,8.00
2023-05-19T16:41:12.494Z,11.20
2023-05-19T16:43:40.446Z,8.80
2023-05-19T16:46:09.884Z,6.80
2023-05-19T16:48:37.945Z,5.60
2023-05-19T16:51:05.713Z,5.70
2023-05-19T16:53:33.652Z,7.30
2023-05-19T16:56:02.053Z,12.50
2023-05-19T16:58:30.927Z,10.60
2023-05-19T17:00:58.846Z,11.50
2023-05-19T17:03:26.625Z,9.00
2023-05-19T17:05:54.414Z,9.00
2023-05-19T17:08:22.272Z,8.40
2023-05-19T17:10:50.111Z,8.80
2023-05-19T17:13:17.763Z,8.00
2023-05-19T17:15:45.567Z,22.10
2023-05-19T17:18:13.370Z,16.30
2023-05-19T17:20:41.666Z,16.60
2023-05-19T17:23:09.518Z,13.20
2023-05-19T17:25:37.232Z,10.60
2023-05-19T17:28:05.010Z,7.90
2023-05-19T17:30:34.633Z,8.40
2023-05-19T17:33:03.813Z,9.30
2023-05-19T17:35:31.676Z,8.50
2023-05-19T17:38:00.779Z,14.30
2023-05-19T17:40:28.596Z,17.40
2023-05-19T17:42:56.289Z,16.20
2023-05-19T17:45:24.174Z,15.90
2023-05-19T17:47:52.138Z,15.80
2023-05-19T17:50:19.907Z,12.50
2023-05-19T17:52:48.016Z,9.40
2023-05-19T17:55:15.728Z,8.80
2023-05-19T17:57:44.402Z,9.40
2023-05-19T18:00:12.972Z,9.70
2023-05-19T18:02:41.135Z,8.10
2023-05-19T18:05:10.071Z,7.70
2023-05-19T18:07:39.785Z,7.90
2023-05-19T18:10:09.146Z,8.90
2023-05-19T18:12:36.813Z,7.80
2023-05-19T18:15:05.417Z,8.10
2023-05-19T18:17:33.243Z,7.60
2023-05-19T18:20:00.974Z,8.20
2023-05-19T18:22:29.343Z,8.10
2023-05-19T18:24:57.836Z,8.10
2023-05-19T18:27:26.790Z,8.00
2023-05-19T18:29:54.938Z,7.50
2023-05-19T18:32:22.741Z,7.70
2023-05-19T18:34:50.584Z,8.50
2023-05-19T18:37:18.818Z,8.00
2023-05-19T18:39:46.897Z,8.20
2023-05-19T18:42:14.628Z,7.80
2023-05-19T18:44:46.997Z,8.50
2023-05-19T18:47:14.964Z,9.00
2023-05-19T18:49:43.016Z,9.30
2023-05-19T18:52:10.992Z,8.30
2023-05-19T18:54:44.761Z,9.10
2023-05-19T18:57:12.873Z,8.50
2023-05-19T18:59:40.824Z,9.50
2023-05-19T19:02:08.635Z,9.20
2023-05-19T19:04:37.136Z,8.90
2023-05-19T19:07:05.852Z,9.10
2023-05-19T19:09:33.628Z,8.60
2023-05-19T19:12:01.714Z,7.50
2023-05-19T19:14:29.525Z,9.90
2023-05-19T19:16:57.383Z,9.40
2023-05-19T19:19:26.393Z,10.00
2023-05-19T19:21:54.298Z,9.90
2023-05-19T19:24:21.930Z,10.80
2023-05-19T19:26:50.379Z,10.20
2023-05-19T19:29:18.296Z,9.80
2023-05-19T19:31:46.265Z,10.10
2023-05-19T19:34:14.282Z,10.40
2023-05-19T19:36:42.156Z,9.00
2023-05-19T19:39:09.889Z,10.40
2023-05-19T19:41:37.958Z,10.00
2023-05-19T19:44:05.812Z,10.10
2023-05-19T19:46:33.561Z,10.10
2023-05-19T19:49:01.592Z,11.20
2023-05-19T19:51:29.602Z,10.40
2023-05-19T19:53:58.174Z,10.00
2023-05-19T19:56:27.749Z,10.30
2023-05-19T19:58:59.059Z,10.70
2023-05-19T20:01:27.666Z,11.40
2023-05-19T20:03:57.175Z,12.70
2023-05-19T20:06:25.063Z,12.40
2023-05-19T20:08:52.861Z,12.20
2023-05-19T20:11:23.029Z,12.00
2023-05-19T20:13:51.422Z,12.70
2023-05-19T20:16:19.373Z,11.10
2023-05-19T20:18:47.244Z,10.90
2023-05-19T20:21:14.922Z,11.10
2023-05-19T20:23:42.679Z,10.20
2023-05-19T20:26:13.372Z,8.40
2023-05-19T20:28:41.863Z,10.30
2023-05-19T20:31:09.767Z,8.80
2023-05-19T20:33:37.789Z,12.40
2023-05-19T20:36:06.286Z,10.80
2023-05-19T20:38:34.006Z,8.80
2023-05-19T20:41:02.323Z,10.80
2023-05-19T20:43:31.952Z,9.90
2023-05-19T20:46:01.414Z,10.60
2023-05-19T20:48:29.748Z,11.20
2023-05-19T20:50:57.587Z,11.70
2023-05-19T20:53:25.440Z,10.50
2023-05-19T20:55:53.445Z,10.20
2023-05-19T20:58:21.332Z,10.10
2023-05-19T21:00:54.319Z,11.30
2023-05-19T21:03:23.448Z,9.50
2023-05-19T21:05:51.399Z,9.80
2023-05-19T21:08:19.318Z,10.30
2023-05-19T21:10:47.637Z,10.30
2023-05-19T21:13:15.449Z,9.00
2023-05-19T21:15:43.344Z,8.90
2023-05-19T21:18:12.044Z,9.60
2023-05-19T21:20:39.940Z,9.80
2023-05-19T21:23:07.955Z,9.60
2023-05-19T21:25:36.148Z,7.90
2023-05-19T21:28:03.896Z,10.00
2023-05-19T21:30:32.030Z,8.70
2023-05-19T21:33:00.149Z,9.10
2023-05-19T21:35:27.898Z,9.30
2023-05-19T21:37:56.061Z,9.40
2023-05-19T21:40:24.152Z,8.80
2023-05-19T21:42:51.846Z,10.20
2023-05-19T21:45:19.788Z,9.70
2023-05-19T21:47:47.718Z,9.50
2023-05-19T21:50:17.479Z,9.80
2023-05-19T21:52:45.283Z,10.30
2023-05-19T21:55:13.296Z,9.60
2023-05-19T21:57:41.019Z,10.10
2023-05-19T22:00:13.178Z,9.60
2023-05-19T22:02:42.003Z,9.80
2023-05-19T22:05:10.186Z,10.10
2023-05-19T22:07:38.154Z,9.50
2023-05-19T22:10:07.092Z,9.30
2023-05-19T22:12:34.877Z,9.70
2023-05-19T22:15:03.394Z,8.60
2023-05-19T22:17:31.845Z,8.50
2023-05-19T22:19:59.625Z,8.90
2023-05-19T22:22:27.440Z,9.20
2023-05-19T22:24:55.375Z,9.10
2023-05-19T22:27:23.045Z,9.80
2023-05-19T22:29:50.861Z,9.40
2023-05-19T22:32:19.588Z,10.00
2023-05-19T22:34:47.387Z,11.10
2023-05-19T22:37:15.552Z,10.60
2023-05-19T22:39:43.749Z,10.30
2023-05-19T22:42:11.682Z,10.30
2023-05-19T22:44:39.585Z,9.90
2023-05-19T22:47:13.277Z,11.30
2023-05-19T22:49:41.667Z,10.70
2023-05-19T22:52:10.668Z,11.60
2023-05-19T22:54:38.569Z,10.20
2023-05-19T22:57:06.704Z,10.90
2023-05-19T22:59:35.669Z,9.90
2023-05-19T23:02:03.507Z,10.70
2023-05-19T23:04:32.625Z,11.70
2023-05-19T23:07:00.842Z,11.30
2023-05-19T23:09:28.949Z,11.30
2023-05-19T23:11:56.822Z,10.40
2023-05-19T23:14:26.027Z,10.50
2023-05-19T23:16:53.746Z,11.30
2023-05-19T23:19:21.879Z,9.30
2023-05-19T23:21:50.188Z,12.60
2023-05-19T23:24:17.868Z,11.00
2023-05-19T23:26:45.794Z,9.80
2023-05-19T23:29:14.769Z,10.30
2023-05-19T23:31:42.596Z,10.50
2023-05-19T23:34:10.634Z,11.20
2023-05-19T23:36:38.762Z,10.20
2023-05-19T23:39:06.392Z,10.00
2023-05-19T23:41:34.148Z,10.50
2023-05-19T23:44:02.254Z,11.30
2023-05-19T23:46:30.274Z,12.70
2023-05-19T23:48:58.348Z,10.50
2023-05-19T23:51:26.686Z,10.20
2023-05-19T23:53:54.321Z,10.20
2023-05-19T23:56:22.526Z,10.00
2023-05-19T23:58:50.479Z,10.90
